sensor_id;sensor_type;location;lat;lon;timestamp;P1;durP1;ratioP1;P2;durP2;ratioP2
7881;SDS011;3986;41.884;23.466;2022-12-20T00:00:48;37.87;;;21.00;;
7881;SDS011;3986;41.884;23.466;2022-12-20T00:03:15;30.00;;;20.50;;
7881;SDS011;3986;41.884;23.466;2022-12-20T00:05:42;33.00;;;23.60;;
7881;SDS011;3986;41.884;23.466;2022-12-20T00:08:11;42.40;;;28.23;;
7881;SDS011;3986;41.884;23.466;2022-12-20T00:10:39;45.40;;;30.67;;
7881;SDS011;3986;41.884;23.466;2022-12-20T00:13:06;52.80;;;33.33;;
7881;SDS011;3986;41.884;23.466;2022-12-20T00:15:34;43.87;;;34.90;;
7881;SDS011;3986;41.884;23.466;2022-12-20T00:18:01;42.47;;;31.87;;
7881;SDS011;3986;41.884;23.466;2022-12-20T00:20:28;53.03;;;29.00;;
7881;SDS011;3986;41.884;23.466;2022-12-20T00:22:56;42.10;;;26.33;;
7881;SDS011;3986;41.884;23.466;2022-12-20T00:25:24;37.20;;;23.87;;
7881;SDS011;3986;41.884;23.466;2022-12-20T00:27:51;41.03;;;23.93;;
7881;SDS011;3986;41.884;23.466;2022-12-20T00:30:17;33.57;;;23.63;;
7881;SDS011;3986;41.884;23.466;2022-12-20T00:32:45;37.90;;;24.00;;
7881;SDS011;3986;41.884;23.466;2022-12-20T00:35:12;36.30;;;20.63;;
7881;SDS011;3986;41.884;23.466;2022-12-20T00:37:39;27.40;;;19.03;;
7881;SDS011;3986;41.884;23.466;2022-12-20T00:40:06;26.53;;;17.50;;
7881;SDS011;3986;41.884;23.466;2022-12-20T00:42:35;34.73;;;18.13;;
7881;SDS011;3986;41.884;23.466;2022-12-20T00:45:02;35.57;;;20.20;;
7881;SDS011;3986;41.884;23.466;2022-12-20T00:47:29;41.07;;;21.57;;
7881;SDS011;3986;41.884;23.466;2022-12-20T00:49:56;36.73;;;19.30;;
7881;SDS011;3986;41.884;23.466;2022-12-20T00:52:23;27.10;;;18.63;;
7881;SDS011;3986;41.884;23.466;2022-12-20T00:54:49;29.87;;;17.20;;
7881;SDS011;3986;41.884;23.466;2022-12-20T00:57:16;27.80;;;19.23;;
7881;SDS011;3986;41.884;23.466;2022-12-20T00:59:44;23.37;;;17.43;;
7881;SDS011;3986;41.884;23.466;2022-12-20T01:02:11;31.90;;;18.00;;
7881;SDS011;3986;41.884;23.466;2022-12-20T01:04:38;32.13;;;19.47;;
7881;SDS011;3986;41.884;23.466;2022-12-20T01:07:04;42.47;;;18.97;;
7881;SDS011;3986;41.884;23.466;2022-12-20T01:09:31;34.10;;;17.83;;
7881;SDS011;3986;41.884;23.466;2022-12-20T01:11:58;34.17;;;19.17;;
7881;SDS011;3986;41.884;23.466;2022-12-20T01:14:25;38.27;;;21.37;;
7881;SDS011;3986;41.884;23.466;2022-12-20T01:16:53;44.50;;;20.60;;
7881;SDS011;3986;41.884;23.466;2022-12-20T01:19:20;31.97;;;17.80;;
7881;SDS011;3986;41.884;23.466;2022-12-20T01:21:46;24.03;;;15.83;;
7881;SDS011;3986;41.884;23.466;2022-12-20T01:24:14;20.47;;;17.03;;
7881;SDS011;3986;41.884;23.466;2022-12-20T01:26:42;27.23;;;18.70;;
7881;SDS011;3986;41.884;23.466;2022-12-20T01:29:09;28.03;;;19.37;;
7881;SDS011;3986;41.884;23.466;2022-12-20T01:31:36;30.17;;;18.53;;
7881;SDS011;3986;41.884;23.466;2022-12-20T01:34:05;34.43;;;18.53;;
7881;SDS011;3986;41.884;23.466;2022-12-20T01:36:33;35.33;;;18.47;;
7881;SDS011;3986;41.884;23.466;2022-12-20T01:39:02;32.57;;;17.30;;
7881;SDS011;3986;41.884;23.466;2022-12-20T01:41:32;35.77;;;21.70;;
7881;SDS011;3986;41.884;23.466;2022-12-20T01:44:00;39.40;;;24.27;;
7881;SDS011;3986;41.884;23.466;2022-12-20T01:46:29;35.03;;;21.30;;
7881;SDS011;3986;41.884;23.466;2022-12-20T01:48:58;39.93;;;21.63;;
7881;SDS011;3986;41.884;23.466;2022-12-20T01:51:31;34.20;;;20.70;;
7881;SDS011;3986;41.884;23.466;2022-12-20T01:54:03;27.87;;;16.00;;
7881;SDS011;3986;41.884;23.466;2022-12-20T01:56:33;19.93;;;14.77;;
7881;SDS011;3986;41.884;23.466;2022-12-20T01:59:01;34.23;;;17.27;;
7881;SDS011;3986;41.884;23.466;2022-12-20T02:01:28;30.47;;;18.10;;
7881;SDS011;3986;41.884;23.466;2022-12-20T02:03:55;29.63;;;18.00;;
7881;SDS011;3986;41.884;23.466;2022-12-20T02:06:23;20.03;;;16.73;;
7881;SDS011;3986;41.884;23.466;2022-12-20T02:08:54;28.40;;;19.17;;
7881;SDS011;3986;41.884;23.466;2022-12-20T02:11:40;33.13;;;17.00;;
7881;SDS011;3986;41.884;23.466;2022-12-20T02:14:25;19.47;;;15.63;;
7881;SDS011;3986;41.884;23.466;2022-12-20T02:17:01;24.67;;;16.07;;
7881;SDS011;3986;41.884;23.466;2022-12-20T02:19:46;25.53;;;18.20;;
7881;SDS011;3986;41.884;23.466;2022-12-20T02:22:31;30.03;;;16.47;;
7881;SDS011;3986;41.884;23.466;2022-12-20T02:25:21;22.67;;;15.13;;
7881;SDS011;3986;41.884;23.466;2022-12-20T02:28:11;24.23;;;14.67;;
7881;SDS011;3986;41.884;23.466;2022-12-20T02:30:50;22.70;;;14.73;;
7881;SDS011;3986;41.884;23.466;2022-12-20T02:33:19;22.77;;;16.83;;
7881;SDS011;3986;41.884;23.466;2022-12-20T02:35:49;22.07;;;16.90;;
7881;SDS011;3986;41.884;23.466;2022-12-20T02:38:27;22.77;;;16.37;;
7881;SDS011;3986;41.884;23.466;2022-12-20T02:40:57;27.57;;;16.23;;
7881;SDS011;3986;41.884;23.466;2022-12-20T02:43:27;24.43;;;13.00;;
7881;SDS011;3986;41.884;23.466;2022-12-20T02:46:15;16.50;;;12.30;;
7881;SDS011;3986;41.884;23.466;2022-12-20T02:48:45;18.47;;;14.27;;
7881;SDS011;3986;41.884;23.466;2022-12-20T02:51:14;18.97;;;13.60;;
7881;SDS011;3986;41.884;23.466;2022-12-20T02:53:43;20.07;;;14.33;;
7881;SDS011;3986;41.884;23.466;2022-12-20T02:56:11;27.87;;;17.67;;
7881;SDS011;3986;41.884;23.466;2022-12-20T02:58:42;31.40;;;17.80;;
7881;SDS011;3986;41.884;23.466;2022-12-20T03:01:18;26.80;;;17.33;;
7881;SDS011;3986;41.884;23.466;2022-12-20T03:03:48;23.10;;;18.30;;
7881;SDS011;3986;41.884;23.466;2022-12-20T03:06:16;24.47;;;16.70;;
7881;SDS011;3986;41.884;23.466;2022-12-20T03:08:43;22.47;;;15.13;;
7881;SDS011;3986;41.884;23.466;2022-12-20T03:11:10;29.80;;;17.03;;
7881;SDS011;3986;41.884;23.466;2022-12-20T03:13:37;28.87;;;17.33;;
7881;SDS011;3986;41.884;23.466;2022-12-20T03:16:04;25.27;;;16.30;;
7881;SDS011;3986;41.884;23.466;2022-12-20T03:18:33;26.27;;;15.63;;
7881;SDS011;3986;41.884;23.466;2022-12-20T03:20:59;29.03;;;14.90;;
7881;SDS011;3986;41.884;23.466;2022-12-20T03:23:26;17.17;;;14.47;;
7881;SDS011;3986;41.884;23.466;2022-12-20T03:25:53;19.13;;;15.63;;
7881;SDS011;3986;41.884;23.466;2022-12-20T03:28:20;16.67;;;14.97;;
7881;SDS011;3986;41.884;23.466;2022-12-20T03:30:47;18.67;;;15.73;;
7881;SDS011;3986;41.884;23.466;2022-12-20T03:33:14;24.27;;;15.00;;
7881;SDS011;3986;41.884;23.466;2022-12-20T03:35:42;24.50;;;15.57;;
7881;SDS011;3986;41.884;23.466;2022-12-20T03:38:09;19.60;;;15.00;;
7881;SDS011;3986;41.884;23.466;2022-12-20T03:40:35;26.67;;;16.83;;
7881;SDS011;3986;41.884;23.466;2022-12-20T03:43:02;25.70;;;15.73;;
7881;SDS011;3986;41.884;23.466;2022-12-20T03:45:29;22.30;;;16.10;;
7881;SDS011;3986;41.884;23.466;2022-12-20T03:47:56;17.40;;;15.47;;
7881;SDS011;3986;41.884;23.466;2022-12-20T03:50:22;21.53;;;14.63;;
7881;SDS011;3986;41.884;23.466;2022-12-20T03:52:50;45.70;;;38.80;;
7881;SDS011;3986;41.884;23.466;2022-12-20T03:55:17;31.27;;;21.73;;
7881;SDS011;3986;41.884;23.466;2022-12-20T03:57:44;30.33;;;21.60;;
7881;SDS011;3986;41.884;23.466;2022-12-20T04:00:11;32.83;;;21.67;;
7881;SDS011;3986;41.884;23.466;2022-12-20T04:02:39;37.30;;;24.10;;
7881;SDS011;3986;41.884;23.466;2022-12-20T04:05:06;35.50;;;21.90;;
7881;SDS011;3986;41.884;23.466;2022-12-20T04:07:33;25.93;;;19.63;;
7881;SDS011;3986;41.884;23.466;2022-12-20T04:10:01;24.10;;;16.97;;
7881;SDS011;3986;41.884;23.466;2022-12-20T04:12:28;19.10;;;15.70;;
7881;SDS011;3986;41.884;23.466;2022-12-20T04:14:55;25.10;;;17.83;;
7881;SDS011;3986;41.884;23.466;2022-12-20T04:17:22;20.20;;;16.97;;
7881;SDS011;3986;41.884;23.466;2022-12-20T04:19:48;21.17;;;16.23;;
7881;SDS011;3986;41.884;23.466;2022-12-20T04:22:15;24.80;;;16.60;;
7881;SDS011;3986;41.884;23.466;2022-12-20T04:24:42;30.53;;;16.37;;
7881;SDS011;3986;41.884;23.466;2022-12-20T04:27:10;30.03;;;17.90;;
7881;SDS011;3986;41.884;23.466;2022-12-20T04:29:37;34.27;;;19.90;;
7881;SDS011;3986;41.884;23.466;2022-12-20T04:32:04;36.30;;;20.20;;
7881;SDS011;3986;41.884;23.466;2022-12-20T04:34:30;27.10;;;19.73;;
7881;SDS011;3986;41.884;23.466;2022-12-20T04:36:57;31.33;;;21.13;;
7881;SDS011;3986;41.884;23.466;2022-12-20T04:39:24;30.27;;;22.67;;
7881;SDS011;3986;41.884;23.466;2022-12-20T04:41:51;35.07;;;27.27;;
7881;SDS011;3986;41.884;23.466;2022-12-20T04:44:19;47.40;;;35.13;;
7881;SDS011;3986;41.884;23.466;2022-12-20T04:46:45;51.07;;;36.27;;
7881;SDS011;3986;41.884;23.466;2022-12-20T04:49:12;46.83;;;37.87;;
7881;SDS011;3986;41.884;23.466;2022-12-20T04:51:39;51.97;;;35.93;;
7881;SDS011;3986;41.884;23.466;2022-12-20T04:54:06;59.27;;;44.53;;
7881;SDS011;3986;41.884;23.466;2022-12-20T04:56:31;53.17;;;40.93;;
7881;SDS011;3986;41.884;23.466;2022-12-20T04:58:58;36.90;;;29.73;;
7881;SDS011;3986;41.884;23.466;2022-12-20T05:01:27;48.93;;;35.40;;
7881;SDS011;3986;41.884;23.466;2022-12-20T05:03:54;36.37;;;28.53;;
7881;SDS011;3986;41.884;23.466;2022-12-20T05:06:21;55.23;;;37.63;;
7881;SDS011;3986;41.884;23.466;2022-12-20T05:08:48;61.03;;;42.73;;
7881;SDS011;3986;41.884;23.466;2022-12-20T05:11:15;54.40;;;37.67;;
7881;SDS011;3986;41.884;23.466;2022-12-20T05:13:41;44.10;;;33.03;;
7881;SDS011;3986;41.884;23.466;2022-12-20T05:16:08;55.70;;;41.33;;
7881;SDS011;3986;41.884;23.466;2022-12-20T05:18:36;41.30;;;30.37;;
7881;SDS011;3986;41.884;23.466;2022-12-20T05:21:03;34.70;;;28.50;;
7881;SDS011;3986;41.884;23.466;2022-12-20T05:23:48;38.13;;;26.33;;
7881;SDS011;3986;41.884;23.466;2022-12-20T05:26:32;32.97;;;29.47;;
7881;SDS011;3986;41.884;23.466;2022-12-20T05:29:00;42.37;;;29.63;;
7881;SDS011;3986;41.884;23.466;2022-12-20T05:31:27;42.53;;;33.33;;
7881;SDS011;3986;41.884;23.466;2022-12-20T05:33:55;36.30;;;31.30;;
7881;SDS011;3986;41.884;23.466;2022-12-20T05:36:22;44.70;;;31.10;;
7881;SDS011;3986;41.884;23.466;2022-12-20T05:38:49;38.33;;;27.87;;
7881;SDS011;3986;41.884;23.466;2022-12-20T05:41:16;44.60;;;24.97;;
7881;SDS011;3986;41.884;23.466;2022-12-20T05:43:42;40.87;;;28.17;;
7881;SDS011;3986;41.884;23.466;2022-12-20T05:46:09;43.03;;;30.03;;
7881;SDS011;3986;41.884;23.466;2022-12-20T05:48:36;36.47;;;29.47;;
7881;SDS011;3986;41.884;23.466;2022-12-20T05:51:04;42.27;;;33.53;;
7881;SDS011;3986;41.884;23.466;2022-12-20T05:53:31;47.47;;;37.27;;
7881;SDS011;3986;41.884;23.466;2022-12-20T05:55:58;51.47;;;40.27;;
7881;SDS011;3986;41.884;23.466;2022-12-20T05:58:26;51.80;;;39.30;;
7881;SDS011;3986;41.884;23.466;2022-12-20T06:00:53;87.03;;;63.63;;
7881;SDS011;3986;41.884;23.466;2022-12-20T06:03:20;69.87;;;49.20;;
7881;SDS011;3986;41.884;23.466;2022-12-20T06:05:47;79.73;;;51.43;;
7881;SDS011;3986;41.884;23.466;2022-12-20T06:08:15;64.47;;;45.40;;
7881;SDS011;3986;41.884;23.466;2022-12-20T06:10:42;56.40;;;41.30;;
7881;SDS011;3986;41.884;23.466;2022-12-20T06:13:09;60.80;;;44.37;;
7881;SDS011;3986;41.884;23.466;2022-12-20T06:15:36;64.67;;;45.17;;
7881;SDS011;3986;41.884;23.466;2022-12-20T06:18:03;51.33;;;39.30;;
7881;SDS011;3986;41.884;23.466;2022-12-20T06:20:31;51.43;;;41.03;;
7881;SDS011;3986;41.884;23.466;2022-12-20T06:22:58;71.73;;;48.37;;
7881;SDS011;3986;41.884;23.466;2022-12-20T06:25:26;87.60;;;56.77;;
7881;SDS011;3986;41.884;23.466;2022-12-20T06:27:52;91.70;;;61.37;;
7881;SDS011;3986;41.884;23.466;2022-12-20T06:30:19;91.23;;;63.87;;
7881;SDS011;3986;41.884;23.466;2022-12-20T06:32:46;102.77;;;69.07;;
7881;SDS011;3986;41.884;23.466;2022-12-20T06:35:13;102.30;;;73.00;;
7881;SDS011;3986;41.884;23.466;2022-12-20T06:37:40;115.07;;;80.47;;
7881;SDS011;3986;41.884;23.466;2022-12-20T06:40:08;103.57;;;81.87;;
7881;SDS011;3986;41.884;23.466;2022-12-20T06:42:37;106.97;;;80.87;;
7881;SDS011;3986;41.884;23.466;2022-12-20T06:45:04;103.77;;;73.87;;
7881;SDS011;3986;41.884;23.466;2022-12-20T06:47:32;91.87;;;68.83;;
7881;SDS011;3986;41.884;23.466;2022-12-20T06:49:58;115.07;;;91.70;;
7881;SDS011;3986;41.884;23.466;2022-12-20T06:52:25;160.33;;;110.43;;
7881;SDS011;3986;41.884;23.466;2022-12-20T06:54:52;175.87;;;114.73;;
7881;SDS011;3986;41.884;23.466;2022-12-20T06:57:19;118.80;;;86.40;;
7881;SDS011;3986;41.884;23.466;2022-12-20T06:59:47;109.90;;;70.00;;
7881;SDS011;3986;41.884;23.466;2022-12-20T07:02:14;89.43;;;64.83;;
7881;SDS011;3986;41.884;23.466;2022-12-20T07:04:41;100.57;;;68.13;;
7881;SDS011;3986;41.884;23.466;2022-12-20T07:07:07;73.47;;;51.87;;
7881;SDS011;3986;41.884;23.466;2022-12-20T07:09:34;60.67;;;45.30;;
7881;SDS011;3986;41.884;23.466;2022-12-20T07:12:02;55.97;;;37.17;;
7881;SDS011;3986;41.884;23.466;2022-12-20T07:14:29;138.63;;;34.27;;
7881;SDS011;3986;41.884;23.466;2022-12-20T07:16:57;46.53;;;24.73;;
7881;SDS011;3986;41.884;23.466;2022-12-20T07:19:24;48.97;;;26.83;;
7881;SDS011;3986;41.884;23.466;2022-12-20T07:21:51;47.80;;;21.87;;
7881;SDS011;3986;41.884;23.466;2022-12-20T07:24:18;55.33;;;22.87;;
7881;SDS011;3986;41.884;23.466;2022-12-20T07:26:45;88.97;;;31.63;;
7881;SDS011;3986;41.884;23.466;2022-12-20T07:29:41;50.97;;;18.03;;
7881;SDS011;3986;41.884;23.466;2022-12-20T07:32:09;42.17;;;21.10;;
7881;SDS011;3986;41.884;23.466;2022-12-20T07:34:37;66.53;;;26.23;;
7881;SDS011;3986;41.884;23.466;2022-12-20T07:37:04;31.63;;;23.57;;
7881;SDS011;3986;41.884;23.466;2022-12-20T07:39:32;48.57;;;22.33;;
7881;SDS011;3986;41.884;23.466;2022-12-20T07:41:59;28.73;;;21.43;;
7881;SDS011;3986;41.884;23.466;2022-12-20T07:44:26;38.57;;;23.20;;
7881;SDS011;3986;41.884;23.466;2022-12-20T07:46:54;27.73;;;18.23;;
7881;SDS011;3986;41.884;23.466;2022-12-20T07:51:17;32.80;;;23.70;;
7881;SDS011;3986;41.884;23.466;2022-12-20T07:53:47;35.67;;;21.07;;
7881;SDS011;3986;41.884;23.466;2022-12-20T07:56:17;24.23;;;20.83;;
7881;SDS011;3986;41.884;23.466;2022-12-20T07:58:46;28.37;;;23.47;;
7881;SDS011;3986;41.884;23.466;2022-12-20T08:01:15;56.33;;;30.63;;
7881;SDS011;3986;41.884;23.466;2022-12-20T08:03:42;37.70;;;27.63;;
7881;SDS011;3986;41.884;23.466;2022-12-20T08:06:12;26.60;;;22.20;;
7881;SDS011;3986;41.884;23.466;2022-12-20T08:08:42;24.10;;;21.77;;
7881;SDS011;3986;41.884;23.466;2022-12-20T08:11:12;28.47;;;23.73;;
7881;SDS011;3986;41.884;23.466;2022-12-20T08:13:40;42.03;;;27.60;;
7881;SDS011;3986;41.884;23.466;2022-12-20T08:16:07;38.93;;;27.53;;
7881;SDS011;3986;41.884;23.466;2022-12-20T08:18:33;32.23;;;29.27;;
7881;SDS011;3986;41.884;23.466;2022-12-20T08:21:00;24.27;;;21.87;;
7881;SDS011;3986;41.884;23.466;2022-12-20T08:23:27;28.07;;;25.13;;
7881;SDS011;3986;41.884;23.466;2022-12-20T08:25:55;30.27;;;26.20;;
7881;SDS011;3986;41.884;23.466;2022-12-20T08:28:22;32.17;;;28.67;;
7881;SDS011;3986;41.884;23.466;2022-12-20T08:30:49;29.50;;;26.40;;
7881;SDS011;3986;41.884;23.466;2022-12-20T08:33:15;29.33;;;26.20;;
7881;SDS011;3986;41.884;23.466;2022-12-20T08:35:42;34.47;;;30.77;;
7881;SDS011;3986;41.884;23.466;2022-12-20T08:38:09;32.23;;;29.10;;
7881;SDS011;3986;41.884;23.466;2022-12-20T08:40:36;38.07;;;33.40;;
7881;SDS011;3986;41.884;23.466;2022-12-20T08:43:04;32.17;;;29.40;;
7881;SDS011;3986;41.884;23.466;2022-12-20T08:45:31;32.07;;;29.00;;
7881;SDS011;3986;41.884;23.466;2022-12-20T08:47:58;34.93;;;31.80;;
7881;SDS011;3986;41.884;23.466;2022-12-20T08:50:24;35.53;;;31.87;;
7881;SDS011;3986;41.884;23.466;2022-12-20T08:52:52;31.87;;;29.10;;
7881;SDS011;3986;41.884;23.466;2022-12-20T08:55:19;28.33;;;25.93;;
7881;SDS011;3986;41.884;23.466;2022-12-20T08:57:46;27.60;;;25.10;;
7881;SDS011;3986;41.884;23.466;2022-12-20T09:00:15;31.80;;;28.70;;
7881;SDS011;3986;41.884;23.466;2022-12-20T09:02:41;34.67;;;31.27;;
7881;SDS011;3986;41.884;23.466;2022-12-20T09:05:09;27.35;;;24.73;;
7881;SDS011;3986;41.884;23.466;2022-12-20T09:07:36;25.50;;;23.33;;
7881;SDS011;3986;41.884;23.466;2022-12-20T09:10:03;27.27;;;24.83;;
7881;SDS011;3986;41.884;23.466;2022-12-20T09:12:30;25.83;;;23.55;;
7881;SDS011;3986;41.884;23.466;2022-12-20T09:14:57;23.88;;;21.58;;
7881;SDS011;3986;41.884;23.466;2022-12-20T09:17:25;25.05;;;22.88;;
7881;SDS011;3986;41.884;23.466;2022-12-20T09:19:52;26.33;;;23.98;;
7881;SDS011;3986;41.884;23.466;2022-12-20T09:22:19;27.73;;;25.33;;
7881;SDS011;3986;41.884;23.466;2022-12-20T09:24:46;24.67;;;22.08;;
7881;SDS011;3986;41.884;23.466;2022-12-20T09:27:13;21.25;;;19.17;;
7881;SDS011;3986;41.884;23.466;2022-12-20T09:29:40;22.20;;;20.02;;
7881;SDS011;3986;41.884;23.466;2022-12-20T09:32:06;22.73;;;20.77;;
7881;SDS011;3986;41.884;23.466;2022-12-20T09:34:35;22.58;;;20.77;;
7881;SDS011;3986;41.884;23.466;2022-12-20T09:37:01;21.38;;;19.38;;
7881;SDS011;3986;41.884;23.466;2022-12-20T09:39:28;25.55;;;23.45;;
7881;SDS011;3986;41.884;23.466;2022-12-20T09:41:55;24.98;;;22.77;;
7881;SDS011;3986;41.884;23.466;2022-12-20T09:44:24;29.35;;;26.75;;
7881;SDS011;3986;41.884;23.466;2022-12-20T09:46:54;27.52;;;24.98;;
7881;SDS011;3986;41.884;23.466;2022-12-20T09:49:26;31.55;;;28.52;;
7881;SDS011;3986;41.884;23.466;2022-12-20T09:52:03;29.52;;;26.80;;
7881;SDS011;3986;41.884;23.466;2022-12-20T09:54:45;20.30;;;18.52;;
7881;SDS011;3986;41.884;23.466;2022-12-20T09:57:23;21.65;;;19.75;;
7881;SDS011;3986;41.884;23.466;2022-12-20T09:59:57;29.08;;;26.48;;
7881;SDS011;3986;41.884;23.466;2022-12-20T10:02:24;20.17;;;18.38;;
7881;SDS011;3986;41.884;23.466;2022-12-20T10:04:53;27.67;;;25.05;;
7881;SDS011;3986;41.884;23.466;2022-12-20T10:07:25;29.95;;;27.23;;
7881;SDS011;3986;41.884;23.466;2022-12-20T10:10:06;24.10;;;22.00;;
7881;SDS011;3986;41.884;23.466;2022-12-20T10:12:44;21.42;;;19.48;;
7881;SDS011;3986;41.884;23.466;2022-12-20T10:15:18;19.00;;;17.38;;
7881;SDS011;3986;41.884;23.466;2022-12-20T10:17:53;21.05;;;19.20;;
7881;SDS011;3986;41.884;23.466;2022-12-20T10:20:37;25.35;;;22.92;;
7881;SDS011;3986;41.884;23.466;2022-12-20T10:23:14;25.50;;;23.33;;
7881;SDS011;3986;41.884;23.466;2022-12-20T10:25:48;22.38;;;20.08;;
7881;SDS011;3986;41.884;23.466;2022-12-20T10:28:15;18.23;;;16.63;;
7881;SDS011;3986;41.884;23.466;2022-12-20T10:30:42;19.88;;;18.10;;
7881;SDS011;3986;41.884;23.466;2022-12-20T10:33:13;22.65;;;20.75;;
7881;SDS011;3986;41.884;23.466;2022-12-20T10:35:44;19.88;;;17.67;;
7881;SDS011;3986;41.884;23.466;2022-12-20T10:38:13;15.68;;;14.02;;
7881;SDS011;3986;41.884;23.466;2022-12-20T10:40:43;21.55;;;14.90;;
7881;SDS011;3986;41.884;23.466;2022-12-20T10:43:13;20.75;;;17.95;;
7881;SDS011;3986;41.884;23.466;2022-12-20T10:45:42;17.83;;;14.25;;
7881;SDS011;3986;41.884;23.466;2022-12-20T10:48:22;26.60;;;17.25;;
7881;SDS011;3986;41.884;23.466;2022-12-20T10:50:54;17.20;;;12.95;;
7881;SDS011;3986;41.884;23.466;2022-12-20T10:53:24;15.35;;;13.80;;
7881;SDS011;3986;41.884;23.466;2022-12-20T10:55:53;14.52;;;12.30;;
7881;SDS011;3986;41.884;23.466;2022-12-20T10:58:34;13.80;;;11.10;;
7881;SDS011;3986;41.884;23.466;2022-12-20T11:01:03;17.05;;;15.30;;
7881;SDS011;3986;41.884;23.466;2022-12-20T11:03:43;22.30;;;13.55;;
7881;SDS011;3986;41.884;23.466;2022-12-20T11:06:17;11.63;;;10.43;;
7881;SDS011;3986;41.884;23.466;2022-12-20T11:08:47;21.48;;;14.30;;
7881;SDS011;3986;41.884;23.466;2022-12-20T11:11:15;13.02;;;11.55;;
7881;SDS011;3986;41.884;23.466;2022-12-20T11:13:44;13.77;;;10.73;;
7881;SDS011;3986;41.884;23.466;2022-12-20T11:16:24;24.45;;;13.02;;
7881;SDS011;3986;41.884;23.466;2022-12-20T11:19:01;17.23;;;10.70;;
7881;SDS011;3986;41.884;23.466;2022-12-20T11:21:50;17.90;;;13.65;;
7881;SDS011;3986;41.884;23.466;2022-12-20T11:24:28;11.95;;;10.40;;
7881;SDS011;3986;41.884;23.466;2022-12-20T11:27:05;11.27;;;10.18;;
7881;SDS011;3986;41.884;23.466;2022-12-20T11:29:51;16.73;;;11.20;;
7881;SDS011;3986;41.884;23.466;2022-12-20T11:35:46;16.38;;;10.85;;
7881;SDS011;3986;41.884;23.466;2022-12-20T11:38:29;17.25;;;11.65;;
7881;SDS011;3986;41.884;23.466;2022-12-20T11:41:12;19.00;;;10.85;;
7881;SDS011;3986;41.884;23.466;2022-12-20T11:43:50;11.50;;;10.30;;
7881;SDS011;3986;41.884;23.466;2022-12-20T11:46:30;19.42;;;12.63;;
7881;SDS011;3986;41.884;23.466;2022-12-20T11:49:10;36.67;;;15.82;;
7881;SDS011;3986;41.884;23.466;2022-12-20T11:51:57;20.23;;;13.38;;
7881;SDS011;3986;41.884;23.466;2022-12-20T11:54:31;18.35;;;12.45;;
7881;SDS011;3986;41.884;23.466;2022-12-20T11:57:04;14.05;;;11.93;;
7881;SDS011;3986;41.884;23.466;2022-12-20T11:59:39;26.75;;;14.35;;
7881;SDS011;3986;41.884;23.466;2022-12-20T12:02:10;15.35;;;13.57;;
7881;SDS011;3986;41.884;23.466;2022-12-20T12:04:40;17.25;;;13.15;;
7881;SDS011;3986;41.884;23.466;2022-12-20T12:07:11;20.55;;;14.65;;
7881;SDS011;3986;41.884;23.466;2022-12-20T12:09:44;16.58;;;14.63;;
7881;SDS011;3986;41.884;23.466;2022-12-20T12:12:22;13.40;;;12.00;;
7881;SDS011;3986;41.884;23.466;2022-12-20T12:14:54;13.80;;;12.57;;
7881;SDS011;3986;41.884;23.466;2022-12-20T12:17:27;17.10;;;15.30;;
7881;SDS011;3986;41.884;23.466;2022-12-20T12:20:06;16.77;;;15.00;;
7881;SDS011;3986;41.884;23.466;2022-12-20T12:22:45;16.15;;;12.80;;
7881;SDS011;3986;41.884;23.466;2022-12-20T12:25:16;23.48;;;21.23;;
7881;SDS011;3986;41.884;23.466;2022-12-20T12:27:45;42.85;;;39.17;;
7881;SDS011;3986;41.884;23.466;2022-12-20T12:30:12;16.00;;;14.05;;
7881;SDS011;3986;41.884;23.466;2022-12-20T12:32:40;13.73;;;11.10;;
7881;SDS011;3986;41.884;23.466;2022-12-20T12:35:18;17.27;;;15.52;;
7881;SDS011;3986;41.884;23.466;2022-12-20T12:38:13;18.13;;;16.23;;
7881;SDS011;3986;41.884;23.466;2022-12-20T12:40:56;16.60;;;13.77;;
7881;SDS011;3986;41.884;23.466;2022-12-20T12:43:48;14.93;;;13.45;;
7881;SDS011;3986;41.884;23.466;2022-12-20T12:46:16;23.65;;;21.73;;
7881;SDS011;3986;41.884;23.466;2022-12-20T12:48:49;23.85;;;21.55;;
7881;SDS011;3986;41.884;23.466;2022-12-20T12:51:22;12.98;;;11.63;;
7881;SDS011;3986;41.884;23.466;2022-12-20T12:53:53;16.52;;;14.93;;
7881;SDS011;3986;41.884;23.466;2022-12-20T12:56:43;23.85;;;21.70;;
7881;SDS011;3986;41.884;23.466;2022-12-20T12:59:20;16.92;;;13.38;;
7881;SDS011;3986;41.884;23.466;2022-12-20T13:02:21;14.05;;;12.65;;
7881;SDS011;3986;41.884;23.466;2022-12-20T13:05:34;13.50;;;12.10;;
7881;SDS011;3986;41.884;23.466;2022-12-20T13:08:01;19.88;;;17.98;;
7881;SDS011;3986;41.884;23.466;2022-12-20T13:13:24;27.20;;;24.73;;
7881;SDS011;3986;41.884;23.466;2022-12-20T13:16:03;17.65;;;15.85;;
7881;SDS011;3986;41.884;23.466;2022-12-20T13:19:02;14.10;;;12.80;;
7881;SDS011;3986;41.884;23.466;2022-12-20T13:21:38;16.98;;;15.18;;
7881;SDS011;3986;41.884;23.466;2022-12-20T13:27:26;12.95;;;11.75;;
7881;SDS011;3986;41.884;23.466;2022-12-20T13:30:00;13.13;;;11.93;;
7881;SDS011;3986;41.884;23.466;2022-12-20T13:32:57;14.13;;;12.93;;
7881;SDS011;3986;41.884;23.466;2022-12-20T13:35:46;24.48;;;22.10;;
7881;SDS011;3986;41.884;23.466;2022-12-20T13:38:38;16.17;;;14.88;;
7881;SDS011;3986;41.884;23.466;2022-12-20T13:41:32;15.20;;;13.90;;
7881;SDS011;3986;41.884;23.466;2022-12-20T13:46:57;10.02;;;9.23;;
7881;SDS011;3986;41.884;23.466;2022-12-20T13:49:31;16.23;;;14.82;;
7881;SDS011;3986;41.884;23.466;2022-12-20T13:52:11;31.15;;;28.35;;
7881;SDS011;3986;41.884;23.466;2022-12-20T13:54:43;22.85;;;19.92;;
7881;SDS011;3986;41.884;23.466;2022-12-20T13:57:13;53.08;;;20.05;;
7881;SDS011;3986;41.884;23.466;2022-12-20T13:59:44;128.97;;;27.77;;
7881;SDS011;3986;41.884;23.466;2022-12-20T14:02:16;66.33;;;24.83;;
7881;SDS011;3986;41.884;23.466;2022-12-20T14:04:49;69.67;;;27.53;;
7881;SDS011;3986;41.884;23.466;2022-12-20T14:07:23;61.77;;;25.33;;
7881;SDS011;3986;41.884;23.466;2022-12-20T14:09:54;72.23;;;25.33;;
7881;SDS011;3986;41.884;23.466;2022-12-20T14:12:21;149.93;;;26.87;;
7881;SDS011;3986;41.884;23.466;2022-12-20T14:14:49;77.70;;;25.30;;
7881;SDS011;3986;41.884;23.466;2022-12-20T14:17:19;64.83;;;26.23;;
7881;SDS011;3986;41.884;23.466;2022-12-20T14:20:02;48.37;;;29.30;;
7881;SDS011;3986;41.884;23.466;2022-12-20T14:22:39;85.23;;;35.20;;
7881;SDS011;3986;41.884;23.466;2022-12-20T14:25:10;87.37;;;39.97;;
7881;SDS011;3986;41.884;23.466;2022-12-20T14:27:41;109.97;;;44.67;;
7881;SDS011;3986;41.884;23.466;2022-12-20T14:30:23;88.77;;;54.93;;
7881;SDS011;3986;41.884;23.466;2022-12-20T14:32:53;96.10;;;58.43;;
7881;SDS011;3986;41.884;23.466;2022-12-20T14:35:22;98.87;;;49.23;;
7881;SDS011;3986;41.884;23.466;2022-12-20T14:37:52;85.60;;;48.67;;
7881;SDS011;3986;41.884;23.466;2022-12-20T14:40:21;119.80;;;64.27;;
7881;SDS011;3986;41.884;23.466;2022-12-20T14:42:48;110.30;;;72.53;;
7881;SDS011;3986;41.884;23.466;2022-12-20T14:45:16;125.67;;;71.07;;
7881;SDS011;3986;41.884;23.466;2022-12-20T14:47:48;157.03;;;76.13;;
7881;SDS011;3986;41.884;23.466;2022-12-20T14:50:19;122.67;;;73.37;;
7881;SDS011;3986;41.884;23.466;2022-12-20T14:52:51;146.87;;;91.07;;
7881;SDS011;3986;41.884;23.466;2022-12-20T14:55:19;133.77;;;79.47;;
7881;SDS011;3986;41.884;23.466;2022-12-20T14:57:49;141.77;;;82.97;;
7881;SDS011;3986;41.884;23.466;2022-12-20T15:00:21;155.47;;;80.87;;
7881;SDS011;3986;41.884;23.466;2022-12-20T15:02:56;158.80;;;82.20;;
7881;SDS011;3986;41.884;23.466;2022-12-20T15:05:36;152.10;;;91.80;;
7881;SDS011;3986;41.884;23.466;2022-12-20T15:08:14;227.73;;;122.33;;